Time;durP1;ratioP1;P1;durP2;ratioP2;P2;SDS_P1;SDS_P2;PMS_P1;PMS_P2;Temp;Humidity;BMP_temperature;BMP_pressure;BME280_temperature;BME280_humidity;BME280_pressure;Samples;Min_cycle;Max_cycle;Signal;HPM_P1;HPM_P2
2022/11/14 00:06:32;;;;;;;5.75;5.25;;;0.60;99.90;;;;;;4641928;30;20072;-80
2022/11/14 00:09:18;;;;;;;7.40;6.32;;;0.70;99.90;;;;;;4632652;30;20051;-79
2022/11/14 00:12:05;;;;;;;6.82;5.57;;;0.40;99.90;;;;;;4647375;30;20061;-79
2022/11/14 00:14:51;;;;;;;6.60;5.43;;;0.20;99.90;;;;;;4632522;30;20511;-79
2022/11/14 00:17:37;;;;;;;9.27;6.90;;;0.20;99.90;;;;;;4647874;30;20391;-79
2022/11/14 00:20:23;;;;;;;9.80;8.95;;;0.10;99.90;;;;;;4649049;30;20173;-79
2022/11/14 00:23:09;;;;;;;6.38;5.78;;;0.00;99.90;;;;;;4664713;30;20053;-79
2022/11/14 00:25:55;;;;;;;5.68;5.05;;;0.00;99.90;;;;;;4664865;30;20062;-79
2022/11/14 00:28:41;;;;;;;7.00;5.78;;;-0.10;99.90;;;;;;4664575;30;20698;-79
2022/11/14 00:31:27;;;;;;;7.05;5.55;;;0.00;99.90;;;;;;4664798;30;20047;-79
2022/11/14 00:34:13;;;;;;;5.75;5.25;;;0.00;99.90;;;;;;4664731;30;20076;-79
2022/11/14 00:36:59;;;;;;;7.70;6.47;;;-0.10;99.90;;;;;;4664216;30;20054;-79
2022/11/14 00:39:45;;;;;;;6.38;5.00;;;-0.10;99.90;;;;;;4664643;30;20063;-79
2022/11/14 00:42:33;;;;;;;5.85;5.35;;;-0.10;99.90;;;;;;4649400;30;20058;-79
2022/11/14 00:45:19;;;;;;;5.90;5.13;;;-0.20;99.90;;;;;;4648967;30;20058;-79
2022/11/14 00:48:05;;;;;;;4.95;4.53;;;-0.10;99.90;;;;;;4664388;30;20050;-79
2022/11/14 00:50:51;;;;;;;5.10;4.72;;;-0.10;99.90;;;;;;4664365;30;20042;-79
2022/11/14 00:53:37;;;;;;;4.65;4.25;;;-0.10;99.90;;;;;;4649671;30;20510;-79
2022/11/14 00:56:23;;;;;;;5.43;4.93;;;-0.20;99.90;;;;;;4664013;30;20078;-79
2022/11/14 00:59:09;;;;;;;4.47;4.07;;;-0.40;99.90;;;;;;4664287;30;20050;-79
2022/11/14 01:01:55;;;;;;;6.75;6.15;;;-0.40;99.90;;;;;;4665029;30;20054;-79
2022/11/14 01:04:43;;;;;;;5.22;4.80;;;-0.30;99.90;;;;;;4663514;30;20054;-79
2022/11/14 01:07:29;;;;;;;5.90;5.32;;;-0.20;99.90;;;;;;4663768;30;20058;-79
2022/11/14 01:10:16;;;;;;;5.10;4.60;;;-0.20;99.90;;;;;;4665558;30;20047;-79
2022/11/14 01:13:02;;;;;;;7.45;6.78;;;0.00;99.90;;;;;;4666816;30;20509;-79
2022/11/14 01:15:49;;;;;;;5.18;4.78;;;0.10;99.90;;;;;;4667421;30;20124;-79
2022/11/14 01:18:41;;;;;;;6.43;4.80;;;0.10;99.90;;;;;;4668017;30;20053;-79
2022/11/14 01:21:27;;;;;;;5.35;4.80;;;-0.10;99.90;;;;;;4653180;30;20065;-80
2022/11/14 01:24:13;;;;;;;6.07;4.63;;;-0.20;99.90;;;;;;4667348;30;20058;-79
2022/11/14 01:27:00;;;;;;;7.28;6.57;;;-0.30;99.90;;;;;;4667164;30;20402;-79
2022/11/14 01:29:45;;;;;;;6.00;5.03;;;-0.30;99.90;;;;;;4668115;30;20102;-79
2022/11/14 01:32:31;;;;;;;4.78;4.28;;;-0.40;99.90;;;;;;4667167;30;20058;-79
2022/11/14 01:35:17;;;;;;;6.05;5.05;;;-0.40;99.90;;;;;;4666419;30;20502;-79
2022/11/14 01:38:04;;;;;;;4.82;4.35;;;-0.40;99.90;;;;;;4679717;30;20058;-79
2022/11/14 01:40:50;;;;;;;5.15;3.63;;;-0.40;99.90;;;;;;4683837;30;20050;-78
2022/11/14 01:43:37;;;;;;;5.60;4.68;;;-0.30;99.90;;;;;;4684126;30;20428;-79
2022/11/14 01:46:28;;;;;;;7.30;5.65;;;-0.10;99.90;;;;;;4684739;30;20054;-79
2022/11/14 01:49:29;;;;;;;7.88;6.35;;;0.10;99.90;;;;;;4656265;30;20062;-79
2022/11/14 01:52:26;;;;;;;4.78;3.47;;;0.00;99.90;;;;;;4666710;30;20066;-79
2022/11/14 01:55:12;;;;;;;7.30;6.05;;;0.00;99.90;;;;;;4666823;30;20050;-79
2022/11/14 01:57:59;;;;;;;7.38;5.05;;;-0.10;99.90;;;;;;4666940;30;20065;-79
2022/11/14 02:00:45;;;;;;;5.20;4.78;;;0.00;99.90;;;;;;4662159;30;20843;-79
2022/11/14 02:03:34;;;;;;;5.43;4.45;;;0.00;99.90;;;;;;4665672;30;20050;-79
2022/11/14 02:06:23;;;;;;;6.60;5.63;;;0.00;99.90;;;;;;4666779;30;20398;-79
2022/11/14 02:09:09;;;;;;;7.78;5.43;;;-0.10;99.90;;;;;;4666277;30;20909;-79
2022/11/14 02:11:58;;;;;;;4.60;4.15;;;-0.10;99.90;;;;;;4666244;30;20050;-79
2022/11/14 02:14:47;;;;;;;5.30;4.88;;;-0.30;99.90;;;;;;4666512;30;20076;-79
2022/11/14 02:17:36;;;;;;;6.00;3.25;;;-0.40;99.90;;;;;;4666896;30;20066;-79
2022/11/14 02:20:27;;;;;;;7.22;4.93;;;-0.50;99.90;;;;;;4665894;30;20047;-79
2022/11/14 02:23:14;;;;;;;5.80;5.35;;;-0.50;99.90;;;;;;4666175;30;20055;-79
2022/11/14 02:26:00;;;;;;;5.75;5.18;;;-0.50;99.90;;;;;;4666528;30;20051;-79
2022/11/14 02:28:47;;;;;;;5.10;4.38;;;-0.50;99.90;;;;;;4665897;30;20046;-78
2022/11/14 02:31:33;;;;;;;6.18;5.57;;;-0.40;99.90;;;;;;4666172;30;20050;-78
2022/11/14 02:34:19;;;;;;;5.43;5.00;;;-0.40;99.90;;;;;;4658476;30;20057;-78
2022/11/14 02:37:06;;;;;;;5.25;4.50;;;-0.40;99.90;;;;;;4664579;30;20368;-78
2022/11/14 02:39:52;;;;;;;12.15;5.20;;;-0.40;99.90;;;;;;4650759;30;20051;-78
2022/11/14 02:42:38;;;;;;;8.30;5.40;;;-0.50;99.90;;;;;;4666061;30;20050;-79
2022/11/14 02:45:24;;;;;;;8.57;4.82;;;-0.50;99.90;;;;;;4650589;30;20106;-78
2022/11/14 02:48:10;;;;;;;5.93;5.32;;;-0.50;99.90;;;;;;4664670;30;20051;-79
2022/11/14 02:50:56;;;;;;;5.38;4.32;;;-0.50;99.90;;;;;;4665619;30;20047;-78
2022/11/14 02:53:43;;;;;;;5.78;4.40;;;-0.50;99.90;;;;;;4665954;30;20066;-78
2022/11/14 02:56:29;;;;;;;4.80;4.07;;;-0.50;99.90;;;;;;4664308;30;20541;-79
2022/11/14 02:59:15;;;;;;;5.22;4.65;;;-0.50;99.90;;;;;;4664259;30;20057;-78
2022/11/14 03:02:01;;;;;;;4.50;4.10;;;-0.50;99.90;;;;;;4665861;30;20054;-78
2022/11/14 03:04:47;;;;;;;6.05;4.68;;;-0.50;99.90;;;;;;4665155;30;20051;-78
2022/11/14 03:07:33;;;;;;;5.53;4.32;;;-0.40;99.90;;;;;;4664210;30;20419;-78
2022/11/14 03:10:19;;;;;;;5.18;4.45;;;-0.40;99.90;;;;;;4670546;30;20600;-78
2022/11/14 03:13:05;;;;;;;3.92;3.60;;;-0.30;99.90;;;;;;4681820;30;20068;-78
2022/11/14 03:15:51;;;;;;;6.30;5.70;;;-0.40;99.90;;;;;;4682596;30;20057;-78
2022/11/14 03:18:43;;;;;;;6.30;5.63;;;-0.30;99.90;;;;;;4682650;30;20054;-78
2022/11/14 03:21:28;;;;;;;6.40;5.80;;;-0.20;99.90;;;;;;4663194;30;20069;-79
2022/11/14 03:24:14;;;;;;;4.88;3.75;;;-0.20;99.90;;;;;;4665169;30;20050;-78
2022/11/14 03:27:01;;;;;;;4.75;4.40;;;-0.60;99.90;;;;;;4664656;30;20507;-79
2022/11/14 03:29:47;;;;;;;5.47;4.97;;;-0.70;99.90;;;;;;4664342;30;20517;-78
2022/11/14 03:32:33;;;;;;;4.68;4.13;;;-0.70;99.90;;;;;;4664657;30;20062;-78
2022/11/14 03:35:19;;;;;;;6.22;4.75;;;-0.60;99.90;;;;;;4663002;30;20688;-78
2022/11/14 03:38:05;;;;;;;5.80;5.30;;;-0.40;99.90;;;;;;4665092;30;20054;-78
2022/11/14 03:40:51;;;;;;;5.20;4.28;;;-0.20;99.90;;;;;;4664726;30;20051;-78
2022/11/14 03:43:37;;;;;;;6.85;5.65;;;-0.20;99.90;;;;;;4664664;30;20047;-79
2022/11/14 03:46:23;;;;;;;5.97;5.15;;;-0.50;99.90;;;;;;4664972;30;20054;-78
2022/11/14 03:49:09;;;;;;;7.07;5.65;;;-0.70;99.90;;;;;;4664635;30;20063;-79
2022/11/14 03:51:55;;;;;;;7.28;4.78;;;-0.70;99.90;;;;;;4663373;30;20066;-78
2022/11/14 03:54:41;;;;;;;5.30;4.47;;;-0.60;99.90;;;;;;4664819;30;20058;-79
2022/11/14 03:57:27;;;;;;;7.22;4.70;;;-0.60;99.90;;;;;;4664703;30;20062;-78
2022/11/14 04:00:13;;;;;;;4.80;4.35;;;-0.60;99.90;;;;;;4664404;30;20411;-79
2022/11/14 04:02:59;;;;;;;4.65;4.20;;;-0.50;99.90;;;;;;4664511;30;20065;-79
2022/11/14 04:05:45;;;;;;;5.85;5.22;;;-0.50;99.90;;;;;;4664857;30;20394;-78
2022/11/14 04:08:31;;;;;;;4.03;3.75;;;-0.40;99.90;;;;;;4664549;30;20047;-78
2022/11/14 04:11:18;;;;;;;6.38;5.10;;;-0.30;99.90;;;;;;4663830;30;20407;-79
2022/11/14 04:14:04;;;;;;;4.32;3.92;;;-0.20;99.90;;;;;;4665040;30;20050;-79
2022/11/14 04:16:50;;;;;;;5.85;4.85;;;-0.20;99.90;;;;;;4663144;30;20066;-79
2022/11/14 04:19:36;;;;;;;4.38;4.07;;;-0.20;99.90;;;;;;4663522;30;20051;-79
2022/11/14 04:22:22;;;;;;;6.28;5.15;;;-0.30;99.90;;;;;;4663683;30;20062;-78
2022/11/14 04:25:09;;;;;;;6.68;4.50;;;-0.30;99.90;;;;;;4664395;30;20062;-79
2022/11/14 04:27:55;;;;;;;4.97;4.57;;;-0.20;99.90;;;;;;4664478;30;20057;-79
2022/11/14 04:30:41;;;;;;;4.72;4.32;;;-0.30;99.90;;;;;;4664730;30;20050;-79
2022/11/14 04:33:27;;;;;;;3.33;3.03;;;-0.30;99.90;;;;;;4663210;30;20406;-77
2022/11/14 04:36:13;;;;;;;3.78;3.42;;;-0.20;99.90;;;;;;4662139;30;20137;-77
2022/11/14 04:38:59;;;;;;;3.92;3.63;;;-0.20;99.90;;;;;;4662546;30;20050;-77
2022/11/14 04:41:45;;;;;;;4.50;4.18;;;-0.30;99.90;;;;;;4663729;30;20092;-77
2022/11/14 04:44:31;;;;;;;5.07;4.63;;;-0.30;99.90;;;;;;4664922;30;20057;-77
2022/11/14 04:47:17;;;;;;;4.80;4.47;;;-0.40;99.90;;;;;;4665963;30;20042;-79
2022/11/14 04:50:04;;;;;;;3.17;2.97;;;-0.40;99.90;;;;;;4667354;30;20062;-79
2022/11/14 04:52:52;;;;;;;5.50;5.03;;;-0.40;99.90;;;;;;4667768;30;20066;-79
2022/11/14 04:55:38;;;;;;;4.47;4.03;;;-0.40;99.90;;;;;;4667825;30;20931;-79
2022/11/14 04:58:25;;;;;;;4.88;4.00;;;-0.40;99.90;;;;;;4667065;30;20069;-79
2022/11/14 05:01:12;;;;;;;4.78;3.40;;;-0.40;99.90;;;;;;4654505;30;20069;-79
2022/11/14 05:03:59;;;;;;;4.68;4.28;;;-0.30;99.90;;;;;;4667904;30;20058;-79
2022/11/14 05:06:44;;;;;;;8.63;3.65;;;-0.40;99.90;;;;;;4666325;30;20051;-79
2022/11/14 05:09:30;;;;;;;4.18;3.88;;;-0.50;99.90;;;;;;4667173;30;20368;-79
2022/11/14 05:12:16;;;;;;;4.00;3.53;;;-0.50;99.90;;;;;;4649044;30;20063;-79
2022/11/14 05:15:02;;;;;;;5.80;4.97;;;-0.50;99.90;;;;;;4637828;30;20051;-79
2022/11/14 05:17:48;;;;;;;4.72;3.90;;;-0.50;99.90;;;;;;4664280;30;20066;-79
2022/11/14 05:20:34;;;;;;;5.45;4.93;;;-0.50;99.90;;;;;;4653204;30;20070;-79
2022/11/14 05:23:22;;;;;;;5.15;4.63;;;-0.50;99.90;;;;;;4667436;30;20051;-79
2022/11/14 05:26:11;;;;;;;4.13;3.83;;;-0.40;99.90;;;;;;4654731;30;20486;-79
2022/11/14 05:28:57;;;;;;;4.22;3.85;;;-0.40;99.90;;;;;;4654234;30;20054;-79
2022/11/14 05:31:43;;;;;;;3.90;3.55;;;-0.30;99.90;;;;;;4666208;30;20046;-79
2022/11/14 05:34:29;;;;;;;4.50;4.10;;;-0.40;99.90;;;;;;4667610;30;20402;-79
2022/11/14 05:37:15;;;;;;;5.05;3.28;;;-0.50;99.90;;;;;;4651168;30;20059;-79
2022/11/14 05:40:02;;;;;;;4.88;4.25;;;-0.60;99.90;;;;;;4666435;30;20058;-77
2022/11/14 05:42:48;;;;;;;6.28;5.22;;;-0.50;99.90;;;;;;4666145;30;20061;-77
2022/11/14 05:45:34;;;;;;;6.18;4.88;;;-0.40;99.90;;;;;;4666962;30;20054;-77
2022/11/14 05:48:27;;;;;;;5.10;4.35;;;-0.20;99.90;;;;;;4666311;30;20046;-77
2022/11/14 05:51:14;;;;;;;4.18;3.60;;;-0.30;99.90;;;;;;4677038;30;20054;-76
2022/11/14 05:54:00;;;;;;;5.60;4.88;;;-0.50;99.90;;;;;;4670685;30;20390;-77
2022/11/14 05:56:46;;;;;;;12.00;5.07;;;-0.40;99.90;;;;;;4682139;30;20438;-76
2022/11/14 05:59:32;;;;;;;6.05;5.38;;;-0.10;99.90;;;;;;4677920;30;20144;-77
2022/11/14 06:02:18;;;;;;;6.20;5.60;;;-0.10;99.90;;;;;;4667594;30;20058;-78
2022/11/14 06:05:05;;;;;;;4.88;4.18;;;-0.20;99.90;;;;;;4666488;30;20767;-78
2022/11/14 06:07:56;;;;;;;5.60;5.07;;;-0.50;99.90;;;;;;4666747;30;20055;-78
2022/11/14 06:10:42;;;;;;;7.57;5.88;;;-0.40;99.90;;;;;;4666816;30;20055;-78
2022/11/14 06:13:28;;;;;;;5.55;5.05;;;-0.40;99.90;;;;;;4667338;30;20059;-78
2022/11/14 06:16:16;;;;;;;8.45;6.32;;;-0.40;99.90;;;;;;4666640;30;20063;-78
2022/11/14 06:19:04;;;;;;;5.47;3.88;;;-0.50;99.90;;;;;;4651326;30;20627;-78
2022/11/14 06:21:49;;;;;;;6.05;4.63;;;-0.40;99.90;;;;;;4648661;30;20059;-78
2022/11/14 06:24:36;;;;;;;4.78;4.07;;;-0.40;99.90;;;;;;4648644;30;20419;-78
2022/11/14 06:27:22;;;;;;;7.25;5.63;;;-0.40;99.90;;;;;;4649088;30;20411;-78
2022/11/14 06:30:08;;;;;;;6.95;5.38;;;-0.40;99.90;;;;;;4649006;30;20063;-78
2022/11/14 06:32:58;;;;;;;5.75;5.25;;;-0.20;99.90;;;;;;4660337;30;20058;-78
2022/11/14 06:35:44;;;;;;;10.30;6.43;;;0.00;99.90;;;;;;4649348;30;20050;-78
2022/11/14 06:38:31;;;;;;;5.63;5.18;;;0.20;99.90;;;;;;4660489;30;20070;-77
2022/11/14 06:41:20;;;;;;;9.70;5.70;;;0.50;99.90;;;;;;4647089;30;20059;-77
2022/11/14 06:44:07;;;;;;;7.45;5.97;;;0.80;99.90;;;;;;4661985;30;20066;-78
2022/11/14 06:46:53;;;;;;;6.82;6.13;;;0.80;99.90;;;;;;4649070;30;20062;-78
2022/11/14 06:49:39;;;;;;;5.05;4.07;;;0.60;99.90;;;;;;4649637;30;20051;-78
2022/11/14 06:52:26;;;;;;;7.32;4.88;;;0.30;99.90;;;;;;4648147;30;20411;-77
2022/11/14 06:55:12;;;;;;;6.30;5.68;;;0.20;99.90;;;;;;4648828;30;20047;-77
2022/11/14 06:57:58;;;;;;;9.00;5.25;;;0.30;99.90;;;;;;4649217;30;20062;-77
2022/11/14 07:00:44;;;;;;;5.15;4.72;;;0.40;99.90;;;;;;4649195;30;20074;-77
2022/11/14 07:03:30;;;;;;;9.23;6.30;;;0.10;99.90;;;;;;4664904;30;20069;-78
2022/11/14 07:06:22;;;;;;;9.77;6.32;;;0.20;99.90;;;;;;4666093;30;20054;-77
2022/11/14 07:09:10;;;;;;;7.20;6.50;;;0.90;99.90;;;;;;4665553;30;20065;-77
2022/11/14 07:11:56;;;;;;;9.85;6.13;;;1.30;99.90;;;;;;4664070;30;20051;-77
2022/11/14 07:14:41;;;;;;;7.68;6.85;;;1.30;99.90;;;;;;4665506;30;20058;-77
2022/11/14 07:17:28;;;;;;;7.30;5.97;;;1.10;99.90;;;;;;4664643;30;20066;-77
2022/11/14 07:20:19;;;;;;;5.70;5.22;;;0.90;99.90;;;;;;4664795;30;20054;-78
2022/11/14 07:23:05;;;;;;;6.68;5.20;;;1.00;99.90;;;;;;4669446;30;20050;-77
2022/11/14 07:25:51;;;;;;;6.10;4.82;;;1.10;99.90;;;;;;4669334;30;20050;-77
2022/11/14 07:28:40;;;;;;;10.50;6.72;;;1.20;99.90;;;;;;4668866;30;20057;-78
2022/11/14 07:31:26;;;;;;;5.07;4.22;;;1.50;99.90;;;;;;4682157;30;20061;-78
2022/11/14 07:34:12;;;;;;;7.43;3.92;;;1.90;99.90;;;;;;4682421;30;20057;-78
2022/11/14 07:36:58;;;;;;;5.80;5.05;;;2.10;99.90;;;;;;4665710;30;20061;-78
2022/11/14 07:39:45;;;;;;;7.20;5.50;;;2.30;99.90;;;;;;4668770;30;20050;-78
2022/11/14 07:42:30;;;;;;;7.10;5.65;;;2.10;99.90;;;;;;4669045;30;20390;-78
2022/11/14 07:45:18;;;;;;;5.75;5.22;;;1.80;99.90;;;;;;4651594;30;20050;-78
2022/11/14 07:48:08;;;;;;;8.00;6.22;;;1.70;99.90;;;;;;4681377;30;20656;-78
2022/11/14 07:50:58;;;;;;;7.38;5.88;;;1.70;99.90;;;;;;4681408;30;20421;-79
2022/11/14 07:53:45;;;;;;;7.53;5.10;;;1.80;99.90;;;;;;4681850;30;20081;-78
2022/11/14 07:56:31;;;;;;;7.65;5.15;;;1.90;99.90;;;;;;4668244;30;20069;-79
2022/11/14 07:59:17;;;;;;;6.53;5.85;;;2.10;99.90;;;;;;4664906;30;20062;-78
2022/11/14 08:02:02;;;;;;;7.80;6.70;;;2.30;99.90;;;;;;4664696;30;20565;-78
2022/11/14 08:04:48;;;;;;;6.22;5.60;;;2.40;99.90;;;;;;4664478;30;20054;-78
2022/11/14 08:07:34;;;;;;;5.07;4.25;;;2.40;99.90;;;;;;4663835;30;20061;-78
2022/11/14 08:10:20;;;;;;;7.03;6.07;;;2.40;99.90;;;;;;4664546;30;20054;-78
2022/11/14 08:13:07;;;;;;;5.63;4.78;;;2.40;99.90;;;;;;4662618;30;20066;-78
2022/11/14 08:16:12;;;;;;;8.13;6.68;;;2.50;99.90;;;;;;4663398;30;20406;-78
2022/11/14 08:19:00;;;;;;;7.53;6.78;;;2.70;99.90;;;;;;4663530;30;20054;-78
2022/11/14 08:21:45;;;;;;;6.43;5.10;;;2.80;99.90;;;;;;4664203;30;20522;-78
2022/11/14 08:24:31;;;;;;;9.77;5.95;;;2.90;99.90;;;;;;4663972;30;20054;-78
2022/11/14 08:27:17;;;;;;;8.10;7.38;;;3.10;99.90;;;;;;4663454;30;20054;-78
2022/11/14 08:30:04;;;;;;;6.65;5.05;;;3.10;99.90;;;;;;4664437;30;20055;-78
2022/11/14 08:32:50;;;;;;;7.72;6.97;;;3.20;99.90;;;;;;4648527;30;20054;-78
2022/11/14 08:35:36;;;;;;;5.47;4.97;;;3.20;99.90;;;;;;4663624;30;20039;-78
2022/11/14 08:38:22;;;;;;;6.88;6.00;;;3.40;99.90;;;;;;4663932;30;20058;-78
2022/11/14 08:41:08;;;;;;;8.23;5.32;;;3.60;99.90;;;;;;4663012;30;20065;-78
2022/11/14 08:43:54;;;;;;;7.10;6.22;;;3.90;99.90;;;;;;4663333;30;20051;-78
2022/11/14 08:46:40;;;;;;;7.00;5.43;;;4.20;99.90;;;;;;4663565;30;20055;-79
2022/11/14 08:49:26;;;;;;;9.75;7.22;;;4.50;99.90;;;;;;4664329;30;20050;-78
2022/11/14 08:52:12;;;;;;;7.72;6.25;;;4.90;99.90;;;;;;4663245;30;20050;-78
2022/11/14 08:55:01;;;;;;;8.32;5.72;;;5.30;99.90;;;;;;4651139;30;20047;-78
2022/11/14 08:57:47;;;;;;;6.50;5.03;;;5.70;99.90;;;;;;4663585;30;20066;-78
2022/11/14 09:00:35;;;;;;;7.78;5.88;;;6.10;99.90;;;;;;4663658;30;20531;-78
2022/11/14 09:03:21;;;;;;;4.72;4.32;;;6.30;99.90;;;;;;4663524;30;20057;-78
2022/11/14 09:06:07;;;;;;;11.60;6.53;;;6.50;99.90;;;;;;4663775;30;20062;-78
2022/11/14 09:08:53;;;;;;;6.15;5.55;;;6.70;99.90;;;;;;4663354;30;20070;-79
2022/11/14 09:11:39;;;;;;;7.03;5.65;;;7.10;99.90;;;;;;4659738;30;20147;-78
2022/11/14 09:14:25;;;;;;;6.15;5.53;;;7.10;99.90;;;;;;4663811;30;20043;-79
2022/11/14 09:17:11;;;;;;;6.22;5.63;;;7.10;99.90;;;;;;4662850;30;20063;-79
2022/11/14 09:19:57;;;;;;;8.07;6.75;;;7.20;99.90;;;;;;4663414;30;20054;-79
2022/11/14 09:22:43;;;;;;;7.30;5.93;;;7.20;99.90;;;;;;4663276;30;20059;-79
2022/11/14 09:25:30;;;;;;;14.23;11.15;;;7.40;99.90;;;;;;4663658;30;20058;-79
2022/11/14 09:28:16;;;;;;;8.02;6.03;;;7.60;99.90;;;;;;4662798;30;20051;-79
2022/11/14 09:31:08;;;;;;;5.72;5.18;;;7.60;99.90;;;;;;4664036;30;20042;-79
2022/11/14 09:33:54;;;;;;;9.50;6.25;;;7.70;99.90;;;;;;4666918;30;20062;-79
2022/11/14 09:36:40;;;;;;;11.82;10.52;;;7.80;99.90;;;;;;4666236;30;20510;-79
2022/11/14 09:39:26;;;;;;;6.25;5.35;;;7.90;99.90;;;;;;4666440;30;20054;-79
2022/11/14 09:42:15;;;;;;;12.48;6.82;;;8.00;99.90;;;;;;4651292;30;20414;-78
2022/11/14 09:45:09;;;;;;;7.72;6.68;;;8.10;99.90;;;;;;4651240;30;20528;-79
2022/11/14 09:48:05;;;;;;;11.63;5.07;;;8.20;99.90;;;;;;4666052;30;20058;-79
2022/11/14 09:51:02;;;;;;;6.72;4.65;;;8.30;99.90;;;;;;4666412;30;20495;-79
2022/11/14 09:54:18;;;;;;;4.93;4.45;;;8.50;99.90;;;;;;4651144;30;20062;-79
2022/11/14 09:57:13;;;;;;;7.15;6.55;;;8.60;99.90;;;;;;4650319;30;20384;-79
2022/11/14 09:59:59;;;;;;;7.32;6.55;;;8.60;99.90;;;;;;4661751;30;20073;-79
2022/11/14 10:03:19;;;;;;;8.98;7.03;;;8.70;99.90;;;;;;4652820;30;20055;-80
2022/11/14 10:06:08;;;;;;;6.20;5.00;;;8.90;99.90;;;;;;4666514;30;20058;-79
2022/11/14 10:09:32;;;;;;;4.65;4.25;;;9.00;99.90;;;;;;4665950;30;20506;-80
2022/11/14 10:12:34;;;;;;;6.05;4.40;;;9.10;99.90;;;;;;4665896;30;20872;-80
2022/11/14 10:15:31;;;;;;;5.63;5.05;;;9.10;99.90;;;;;;4664775;30;20054;-80
2022/11/14 10:18:51;;;;;;;3.67;3.35;;;9.20;99.90;;;;;;4664788;30;20093;-79
2022/11/14 10:22:10;;;;;;;5.03;4.53;;;9.40;99.90;;;;;;4652047;30;20054;-79
2022/11/14 10:25:29;;;;;;;6.32;3.75;;;9.60;99.90;;;;;;4665857;30;20058;-80
2022/11/14 10:28:38;;;;;;;5.13;4.63;;;9.90;99.90;;;;;;4655939;30;20051;-89
2022/11/14 10:31:45;;;;;;;4.15;3.72;;;10.10;99.90;;;;;;4652722;30;20078;-90
2022/11/14 10:34:42;;;;;;;5.10;3.95;;;10.20;99.90;;;;;;4647558;30;20055;-90
2022/11/14 10:37:46;;;;;;;5.30;4.80;;;10.50;99.90;;;;;;4634693;30;20063;-90
2022/11/14 10:40:42;;;;;;;4.10;3.75;;;10.60;99.90;;;;;;4638821;30;20077;-90
2022/11/14 10:43:47;;;;;;;3.47;3.17;;;10.90;99.90;;;;;;4633985;30;20058;-79
2022/11/14 10:46:37;;;;;;;4.60;4.13;;;11.00;99.90;;;;;;4645729;30;20061;-79
2022/11/14 10:49:24;;;;;;;4.78;4.22;;;11.20;99.90;;;;;;4645588;30;20063;-80
2022/11/14 10:52:17;;;;;;;4.80;4.40;;;11.40;99.90;;;;;;4645874;30;20058;-79
2022/11/14 10:55:11;;;;;;;5.15;4.30;;;11.60;99.90;;;;;;4645421;30;20072;-79
2022/11/14 10:57:57;;;;;;;4.18;3.83;;;11.80;99.90;;;;;;4646200;30;20507;-79
2022/11/14 11:00:43;;;;;;;4.35;3.53;;;12.00;99.90;;;;;;4658927;30;20051;-79
2022/11/14 11:03:42;;;;;;;4.43;4.00;;;12.20;99.90;;;;;;4652322;30;20047;-80
2022/11/14 11:06:29;;;;;;;3.10;2.80;;;12.20;99.90;;;;;;4665296;30;20063;-79
2022/11/14 11:12:36;;;;;;;4.55;3.97;;;12.00;99.90;;;;;;4664344;30;20387;-79
2022/11/14 11:15:25;;;;;;;4.10;2.90;;;11.90;99.90;;;;;;4665055;30;20051;-80
2022/11/14 11:18:29;;;;;;;4.70;3.42;;;11.80;99.90;;;;;;4665277;30;20050;-79
2022/11/14 11:21:19;;;;;;;7.38;2.58;;;12.10;99.90;;;;;;4648937;30;20054;-79
2022/11/14 11:24:07;;;;;;;4.00;2.72;;;12.20;99.90;;;;;;4649414;30;20050;-79
2022/11/14 11:27:14;;;;;;;2.92;2.50;;;12.30;99.90;;;;;;4648927;30;20057;-80
2022/11/14 11:30:19;;;;;;;2.83;2.63;;;12.30;99.90;;;;;;4664989;30;20068;-79
2022/11/14 11:33:24;;;;;;;4.28;3.90;;;12.20;99.90;;;;;;4664190;30;20061;-79
2022/11/14 11:36:22;;;;;;;4.82;3.10;;;12.20;99.90;;;;;;4664196;30;20544;-80
2022/11/14 11:39:21;;;;;;;3.45;3.13;;;12.10;99.90;;;;;;4649003;30;20046;-80
2022/11/14 11:42:11;;;;;;;2.60;2.40;;;12.30;99.90;;;;;;4664740;30;20054;-79
2022/11/14 11:45:04;;;;;;;3.63;3.33;;;12.30;99.90;;;;;;4664386;30;20043;-79
2022/11/14 11:48:13;;;;;;;4.35;3.50;;;12.20;99.90;;;;;;4664044;30;20069;-80
2022/11/14 11:51:01;;;;;;;3.42;3.13;;;11.90;99.90;;;;;;4672997;30;20065;-79
2022/11/14 11:54:02;;;;;;;5.35;4.20;;;11.70;99.90;;;;;;4668081;30;20058;-79
2022/11/14 11:56:53;;;;;;;5.60;3.22;;;11.40;99.90;;;;;;4680490;30;20429;-79
2022/11/14 11:59:51;;;;;;;3.50;3.20;;;11.10;99.90;;;;;;4680696;30;20518;-79
2022/11/14 12:02:43;;;;;;;4.72;4.32;;;10.70;99.90;;;;;;4681510;30;20526;-79
2022/11/14 12:06:07;;;;;;;4.82;4.43;;;10.50;99.90;;;;;;4667449;30;20069;-79
2022/11/14 12:09:20;;;;;;;5.40;3.85;;;10.30;99.90;;;;;;4681209;30;20406;-79
2022/11/14 12:12:41;;;;;;;4.03;3.65;;;10.20;99.90;;;;;;4680480;30;20382;-79
2022/11/14 12:16:04;;;;;;;5.45;4.07;;;10.10;99.90;;;;;;4681114;30;20046;-80
2022/11/14 12:19:10;;;;;;;3.47;3.28;;;10.00;99.90;;;;;;4681074;30;20064;-79
2022/11/14 12:22:33;;;;;;;4.38;4.07;;;9.80;99.90;;;;;;4668369;30;20062;-79
2022/11/14 12:25:41;;;;;;;5.07;4.35;;;9.90;99.90;;;;;;4665179;30;20069;-79
2022/11/14 12:29:06;;;;;;;4.55;4.03;;;9.90;99.90;;;;;;4680529;30;20072;-79
2022/11/14 12:32:01;;;;;;;4.57;4.07;;;9.90;99.90;;;;;;4655106;30;20057;-79
2022/11/14 12:34:48;;;;;;;4.93;3.97;;;9.90;99.90;;;;;;4667380;30;20058;-79
2022/11/14 12:37:41;;;;;;;5.88;4.35;;;9.60;99.90;;;;;;4663071;30;20487;-79
2022/11/14 12:40:27;;;;;;;4.10;3.65;;;9.60;99.90;;;;;;4664965;30;20830;-79
2022/11/14 12:43:34;;;;;;;5.18;4.55;;;9.30;99.90;;;;;;4681206;30;20054;-79
2022/11/14 12:46:23;;;;;;;7.10;6.50;;;9.20;99.90;;;;;;4681924;30;20054;-80
2022/11/14 12:49:45;;;;;;;5.93;4.85;;;9.10;99.90;;;;;;4668302;30;20057;-80
2022/11/14 12:52:43;;;;;;;5.15;4.68;;;9.30;99.90;;;;;;4648920;30;20050;-79
2022/11/14 12:55:29;;;;;;;5.47;4.97;;;9.40;99.90;;;;;;4664206;30;20062;-80
2022/11/14 12:58:43;;;;;;;6.10;4.57;;;9.30;99.90;;;;;;4648592;30;20058;-79
2022/11/14 13:01:29;;;;;;;5.38;4.45;;;9.30;99.90;;;;;;4662289;30;20062;-80
2022/11/14 13:04:40;;;;;;;5.55;5.05;;;9.20;99.90;;;;;;4663961;30;20530;-79
2022/11/14 13:07:34;;;;;;;5.78;5.28;;;9.30;99.90;;;;;;4663971;30;20054;-80
2022/11/14 13:10:32;;;;;;;3.67;3.38;;;9.40;99.90;;;;;;4682036;30;20063;-79
2022/11/14 13:22:50;;;;;;;7.75;3.72;;;9.60;99.90;;;;;;4677015;30;20062;-80
2022/11/14 13:25:36;;;;;;;3.75;3.45;;;9.70;99.90;;;;;;4650545;30;20418;-79
2022/11/14 13:28:37;;;;;;;3.55;3.15;;;9.80;99.90;;;;;;4668904;30;20517;-79
2022/11/14 13:31:34;;;;;;;3.88;3.60;;;9.80;99.90;;;;;;4683989;30;20410;-80
2022/11/14 13:34:34;;;;;;;4.38;3.97;;;9.80;99.90;;;;;;4675488;30;20050;-80
2022/11/14 13:37:33;;;;;;;3.07;2.87;;;9.70;99.90;;;;;;4660755;30;20079;-80
2022/11/14 13:40:24;;;;;;;3.05;2.85;;;9.60;99.90;;;;;;4684214;30;20066;-81
2022/11/14 13:43:10;;;;;;;4.03;3.13;;;9.60;99.90;;;;;;4683693;30;20065;-81
2022/11/14 13:46:20;;;;;;;3.92;3.03;;;9.60;99.90;;;;;;4669028;30;20081;-80
2022/11/14 13:49:39;;;;;;;9.00;4.70;;;9.70;99.90;;;;;;4683844;30;20058;-80
2022/11/14 13:52:31;;;;;;;3.83;3.40;;;9.70;99.90;;;;;;4649140;30;20055;-79
2022/11/14 13:55:22;;;;;;;4.10;3.80;;;9.80;99.90;;;;;;4667106;30;20050;-81
2022/11/14 13:59:04;;;;;;;5.30;4.80;;;9.80;99.90;;;;;;4667020;30;20069;-80
2022/11/14 14:02:08;;;;;;;;;;;9.80;99.90;;;;;;4637928;30;20063;-80
2022/11/14 14:05:06;;;;;;;3.05;2.72;;;9.80;99.90;;;;;;4633592;30;19932;-79
2022/11/14 14:08:29;;;;;;;4.40;4.03;;;9.70;99.90;;;;;;4665410;30;20058;-80
2022/11/14 14:11:47;;;;;;;3.30;2.92;;;9.60;99.90;;;;;;4666489;30;20053;-81
2022/11/14 14:14:51;;;;;;;4.15;3.85;;;9.60;99.90;;;;;;4654375;30;20057;-79
2022/11/14 14:18:04;;;;;;;5.90;4.88;;;9.60;99.90;;;;;;4652385;30;20054;-80
2022/11/14 14:21:01;;;;;;;8.50;6.55;;;9.60;99.90;;;;;;4653659;30;20402;-80
2022/11/14 14:24:26;;;;;;;6.05;5.32;;;9.50;99.90;;;;;;4666482;30;20064;-80
2022/11/14 14:27:30;;;;;;;8.18;6.85;;;9.50;99.90;;;;;;4647578;30;20054;-80
2022/11/14 14:30:17;;;;;;;5.07;4.63;;;9.40;99.90;;;;;;4666907;30;20491;-80
2022/11/14 14:33:06;;;;;;;8.30;7.47;;;9.40;99.90;;;;;;4666022;30;20069;-80
2022/11/14 14:35:53;;;;;;;7.85;6.32;;;9.20;99.90;;;;;;4650797;30;20076;-80
2022/11/14 14:38:39;;;;;;;6.78;5.82;;;9.20;99.90;;;;;;4651234;30;20054;-79
2022/11/14 14:41:30;;;;;;;9.63;6.35;;;9.10;99.90;;;;;;4676753;30;20058;-80
2022/11/14 14:44:51;;;;;;;10.07;7.40;;;9.10;99.90;;;;;;4665589;30;20050;-80
2022/11/14 14:47:40;;;;;;;10.68;8.23;;;9.00;99.90;;;;;;4622533;30;20054;-80
2022/11/14 14:50:48;;;;;;;11.13;7.75;;;8.90;99.90;;;;;;4666005;30;20081;-80
2022/11/14 14:53:35;;;;;;;10.95;7.40;;;8.80;99.90;;;;;;4637544;30;20050;-80
2022/11/14 14:56:26;;;;;;;15.75;8.88;;;8.80;99.90;;;;;;4665224;30;20221;-80
2022/11/14 14:59:17;;;;;;;9.40;6.78;;;8.70;99.90;;;;;;4665547;30;20415;-80
2022/11/14 15:02:14;;;;;;;9.85;8.10;;;8.60;99.90;;;;;;4666189;30;20057;-80
2022/11/14 15:05:01;;;;;;;8.75;7.13;;;8.60;99.90;;;;;;4650010;30;20065;-80
2022/11/14 15:07:48;;;;;;;15.75;10.27;;;8.60;99.90;;;;;;4664049;30;20053;-80
2022/11/14 15:10:34;;;;;;;12.55;8.70;;;8.50;99.90;;;;;;4665831;30;20513;-80
2022/11/14 15:13:23;;;;;;;9.38;7.45;;;8.50;99.90;;;;;;4649691;30;20057;-79